sensor_id;sensor_type;location;lat;lon;timestamp;temperature;humidity
68354;DHT22;55274;43.060;25.618;2022-12-18T00:01:06;9.10;99.90
68354;DHT22;55274;43.060;25.618;2022-12-18T00:03:38;9.10;99.90
68354;DHT22;55274;43.060;25.618;2022-12-18T00:06:04;9.10;99.90
68354;DHT22;55274;43.060;25.618;2022-12-18T00:08:30;9.10;99.90
68354;DHT22;55274;43.060;25.618;2022-12-18T00:11:07;9.10;99.90
68354;DHT22;55274;43.060;25.618;2022-12-18T00:13:34;9.10;99.90
68354;DHT22;55274;43.060;25.618;2022-12-18T00:16:18;9.10;99.90
68354;DHT22;55274;43.060;25.618;2022-12-18T00:18:46;9.10;99.90
68354;DHT22;55274;43.060;25.618;2022-12-18T00:21:12;9.10;99.90
68354;DHT22;55274;43.060;25.618;2022-12-18T00:23:40;9.00;99.90
68354;DHT22;55274;43.060;25.618;2022-12-18T00:26:12;9.00;99.90
68354;DHT22;55274;43.060;25.618;2022-12-18T00:28:54;9.00;99.90
68354;DHT22;55274;43.060;25.618;2022-12-18T00:31:23;9.10;99.90
68354;DHT22;55274;43.060;25.618;2022-12-18T00:33:49;9.00;99.90
68354;DHT22;55274;43.060;25.618;2022-12-18T00:36:18;9.00;99.90
68354;DHT22;55274;43.060;25.618;2022-12-18T00:38:45;9.00;99.90
68354;DHT22;55274;43.060;25.618;2022-12-18T00:41:13;9.00;99.90
68354;DHT22;55274;43.060;25.618;2022-12-18T00:43:39;9.00;99.90
68354;DHT22;55274;43.060;25.618;2022-12-18T00:46:05;9.00;99.90
68354;DHT22;55274;43.060;25.618;2022-12-18T00:48:32;9.00;99.90
68354;DHT22;55274;43.060;25.618;2022-12-18T00:50:58;9.00;99.90
68354;DHT22;55274;43.060;25.618;2022-12-18T00:53:24;9.00;99.90
68354;DHT22;55274;43.060;25.618;2022-12-18T00:55:49;9.00;99.90
68354;DHT22;55274;43.060;25.618;2022-12-18T00:58:16;9.00;99.90
68354;DHT22;55274;43.060;25.618;2022-12-18T01:00:43;9.00;99.90
68354;DHT22;55274;43.060;25.618;2022-12-18T01:03:10;9.00;99.90
68354;DHT22;55274;43.060;25.618;2022-12-18T01:05:40;9.00;99.90
68354;DHT22;55274;43.060;25.618;2022-12-18T01:08:06;9.00;99.90
68354;DHT22;55274;43.060;25.618;2022-12-18T01:10:32;9.00;99.90
68354;DHT22;55274;43.060;25.618;2022-12-18T01:12:58;8.90;99.90
68354;DHT22;55274;43.060;25.618;2022-12-18T01:15:23;8.90;99.90
68354;DHT22;55274;43.060;25.618;2022-12-18T01:17:52;8.90;99.90
68354;DHT22;55274;43.060;25.618;2022-12-18T01:20:17;8.90;99.90
68354;DHT22;55274;43.060;25.618;2022-12-18T01:22:43;8.90;99.90
68354;DHT22;55274;43.060;25.618;2022-12-18T01:25:09;8.90;99.90
68354;DHT22;55274;43.060;25.618;2022-12-18T01:27:35;8.90;99.90
68354;DHT22;55274;43.060;25.618;2022-12-18T01:30:01;8.90;99.90
68354;DHT22;55274;43.060;25.618;2022-12-18T01:32:30;8.90;99.90
68354;DHT22;55274;43.060;25.618;2022-12-18T01:34:55;8.80;99.90
68354;DHT22;55274;43.060;25.618;2022-12-18T01:37:21;8.80;99.90
68354;DHT22;55274;43.060;25.618;2022-12-18T01:39:47;8.80;99.90
68354;DHT22;55274;43.060;25.618;2022-12-18T01:42:15;8.80;99.90
68354;DHT22;55274;43.060;25.618;2022-12-18T01:44:53;8.90;99.90
68354;DHT22;55274;43.060;25.618;2022-12-18T01:52:47;8.80;99.90
68354;DHT22;55274;43.060;25.618;2022-12-18T01:55:16;8.80;99.90
68354;DHT22;55274;43.060;25.618;2022-12-18T01:57:42;8.80;99.90
68354;DHT22;55274;43.060;25.618;2022-12-18T02:00:12;8.80;99.90
68354;DHT22;55274;43.060;25.618;2022-12-18T02:02:40;8.80;99.90
68354;DHT22;55274;43.060;25.618;2022-12-18T02:05:07;8.80;99.90
68354;DHT22;55274;43.060;25.618;2022-12-18T02:16:03;8.80;99.90
68354;DHT22;55274;43.060;25.618;2022-12-18T02:18:41;8.80;99.90
68354;DHT22;55274;43.060;25.618;2022-12-18T02:26:59;8.80;99.90
68354;DHT22;55274;43.060;25.618;2022-12-18T02:29:31;8.80;99.90
68354;DHT22;55274;43.060;25.618;2022-12-18T02:32:00;8.80;99.90
68354;DHT22;55274;43.060;25.618;2022-12-18T02:34:31;8.80;99.90
68354;DHT22;55274;43.060;25.618;2022-12-18T02:37:00;8.80;99.90
68354;DHT22;55274;43.060;25.618;2022-12-18T02:39:29;8.80;99.90
68354;DHT22;55274;43.060;25.618;2022-12-18T02:41:57;8.80;99.90
68354;DHT22;55274;43.060;25.618;2022-12-18T02:44:24;8.80;99.90
68354;DHT22;55274;43.060;25.618;2022-12-18T02:46:52;8.80;99.90
68354;DHT22;55274;43.060;25.618;2022-12-18T02:57:47;8.70;99.90
68354;DHT22;55274;43.060;25.618;2022-12-18T03:00:19;8.70;99.90
68354;DHT22;55274;43.060;25.618;2022-12-18T03:03:18;8.70;99.90
68354;DHT22;55274;43.060;25.618;2022-12-18T03:08:27;8.60;99.90
68354;DHT22;55274;43.060;25.618;2022-12-18T03:11:04;8.60;99.90
68354;DHT22;55274;43.060;25.618;2022-12-18T03:13:50;8.50;99.90
68354;DHT22;55274;43.060;25.618;2022-12-18T03:16:24;8.50;99.90
68354;DHT22;55274;43.060;25.618;2022-12-18T03:19:08;8.50;99.90
68354;DHT22;55274;43.060;25.618;2022-12-18T03:21:43;8.50;99.90
68354;DHT22;55274;43.060;25.618;2022-12-18T03:24:11;8.40;99.90
68354;DHT22;55274;43.060;25.618;2022-12-18T03:26:40;8.40;99.90
68354;DHT22;55274;43.060;25.618;2022-12-18T03:29:14;8.40;99.90
68354;DHT22;55274;43.060;25.618;2022-12-18T03:31:47;8.40;99.90
68354;DHT22;55274;43.060;25.618;2022-12-18T03:34:19;8.30;99.90
68354;DHT22;55274;43.060;25.618;2022-12-18T03:36:47;8.40;99.90
68354;DHT22;55274;43.060;25.618;2022-12-18T03:39:13;8.40;99.90
68354;DHT22;55274;43.060;25.618;2022-12-18T03:41:43;8.30;99.90
68354;DHT22;55274;43.060;25.618;2022-12-18T03:44:42;8.30;99.90
68354;DHT22;55274;43.060;25.618;2022-12-18T03:47:17;8.30;99.90
68354;DHT22;55274;43.060;25.618;2022-12-18T03:50:16;8.30;99.90
68354;DHT22;55274;43.060;25.618;2022-12-18T03:55:33;8.30;99.90
68354;DHT22;55274;43.060;25.618;2022-12-18T03:58:01;8.30;99.90
68354;DHT22;55274;43.060;25.618;2022-12-18T04:00:28;8.20;99.90
68354;DHT22;55274;43.060;25.618;2022-12-18T04:02:57;8.20;99.90
68354;DHT22;55274;43.060;25.618;2022-12-18T04:05:25;8.20;99.90
68354;DHT22;55274;43.060;25.618;2022-12-18T04:07:53;8.20;99.90
68354;DHT22;55274;43.060;25.618;2022-12-18T04:10:20;8.20;99.90
68354;DHT22;55274;43.060;25.618;2022-12-18T04:12:45;8.10;99.90
68354;DHT22;55274;43.060;25.618;2022-12-18T04:15:12;8.10;99.90
68354;DHT22;55274;43.060;25.618;2022-12-18T04:17:39;8.10;99.90
68354;DHT22;55274;43.060;25.618;2022-12-18T04:20:08;8.10;99.90
68354;DHT22;55274;43.060;25.618;2022-12-18T04:22:34;8.10;99.90
68354;DHT22;55274;43.060;25.618;2022-12-18T04:25:01;8.00;99.90
68354;DHT22;55274;43.060;25.618;2022-12-18T04:27:26;8.00;99.90
68354;DHT22;55274;43.060;25.618;2022-12-18T04:29:52;8.00;99.90
68354;DHT22;55274;43.060;25.618;2022-12-18T04:32:18;8.00;99.90
68354;DHT22;55274;43.060;25.618;2022-12-18T04:34:44;8.00;99.90
68354;DHT22;55274;43.060;25.618;2022-12-18T04:37:09;8.00;99.90
68354;DHT22;55274;43.060;25.618;2022-12-18T04:39:35;8.00;99.90
68354;DHT22;55274;43.060;25.618;2022-12-18T04:42:01;8.00;99.90
68354;DHT22;55274;43.060;25.618;2022-12-18T04:44:27;8.00;99.90
68354;DHT22;55274;43.060;25.618;2022-12-18T04:46:52;8.00;99.90
68354;DHT22;55274;43.060;25.618;2022-12-18T04:49:18;8.00;99.90
68354;DHT22;55274;43.060;25.618;2022-12-18T04:51:44;8.00;99.90
68354;DHT22;55274;43.060;25.618;2022-12-18T04:54:10;8.00;99.90
68354;DHT22;55274;43.060;25.618;2022-12-18T04:56:36;7.90;99.90
68354;DHT22;55274;43.060;25.618;2022-12-18T04:59:02;7.90;99.90
68354;DHT22;55274;43.060;25.618;2022-12-18T05:01:27;7.90;99.90
68354;DHT22;55274;43.060;25.618;2022-12-18T05:03:53;7.90;99.90
68354;DHT22;55274;43.060;25.618;2022-12-18T05:06:19;7.80;99.90
68354;DHT22;55274;43.060;25.618;2022-12-18T05:08:45;7.90;99.90
68354;DHT22;55274;43.060;25.618;2022-12-18T05:11:13;7.90;99.90
68354;DHT22;55274;43.060;25.618;2022-12-18T05:13:42;7.80;99.90
68354;DHT22;55274;43.060;25.618;2022-12-18T05:16:08;7.90;99.90
68354;DHT22;55274;43.060;25.618;2022-12-18T05:18:34;7.90;99.90
68354;DHT22;55274;43.060;25.618;2022-12-18T05:21:00;7.80;99.90
68354;DHT22;55274;43.060;25.618;2022-12-18T05:23:27;7.90;99.90
68354;DHT22;55274;43.060;25.618;2022-12-18T05:25:59;7.80;99.90
68354;DHT22;55274;43.060;25.618;2022-12-18T05:28:26;7.90;99.90
68354;DHT22;55274;43.060;25.618;2022-12-18T05:30:54;7.90;99.90
68354;DHT22;55274;43.060;25.618;2022-12-18T05:33:21;7.90;99.90
68354;DHT22;55274;43.060;25.618;2022-12-18T05:35:55;7.90;99.90
68354;DHT22;55274;43.060;25.618;2022-12-18T05:38:22;7.90;99.90
68354;DHT22;55274;43.060;25.618;2022-12-18T05:40:49;7.80;99.90
68354;DHT22;55274;43.060;25.618;2022-12-18T05:43:15;7.90;99.90
68354;DHT22;55274;43.060;25.618;2022-12-18T05:45:41;7.90;99.90
68354;DHT22;55274;43.060;25.618;2022-12-18T05:48:09;7.80;99.90
68354;DHT22;55274;43.060;25.618;2022-12-18T05:50:36;7.90;99.90
68354;DHT22;55274;43.060;25.618;2022-12-18T05:53:05;7.80;99.90
68354;DHT22;55274;43.060;25.618;2022-12-18T05:55:35;7.80;99.90
68354;DHT22;55274;43.060;25.618;2022-12-18T05:58:03;7.80;99.90
68354;DHT22;55274;43.060;25.618;2022-12-18T06:00:30;7.80;99.90
68354;DHT22;55274;43.060;25.618;2022-12-18T06:02:58;7.80;99.90
68354;DHT22;55274;43.060;25.618;2022-12-18T06:05:25;7.80;99.90
68354;DHT22;55274;43.060;25.618;2022-12-18T06:07:51;7.80;99.90
68354;DHT22;55274;43.060;25.618;2022-12-18T06:10:17;7.80;99.90
68354;DHT22;55274;43.060;25.618;2022-12-18T06:12:43;7.70;99.90
68354;DHT22;55274;43.060;25.618;2022-12-18T06:15:09;7.70;99.90
68354;DHT22;55274;43.060;25.618;2022-12-18T06:17:35;7.80;99.90
68354;DHT22;55274;43.060;25.618;2022-12-18T06:20:01;7.70;99.90
68354;DHT22;55274;43.060;25.618;2022-12-18T06:22:27;7.70;99.90
68354;DHT22;55274;43.060;25.618;2022-12-18T06:24:53;7.70;99.90
68354;DHT22;55274;43.060;25.618;2022-12-18T06:27:19;7.70;99.90
68354;DHT22;55274;43.060;25.618;2022-12-18T06:29:44;7.70;99.90
68354;DHT22;55274;43.060;25.618;2022-12-18T06:32:11;7.80;99.90
68354;DHT22;55274;43.060;25.618;2022-12-18T06:34:40;7.70;99.90
68354;DHT22;55274;43.060;25.618;2022-12-18T06:37:05;7.80;99.90
68354;DHT22;55274;43.060;25.618;2022-12-18T06:39:31;7.80;99.90
68354;DHT22;55274;43.060;25.618;2022-12-18T06:41:57;7.80;99.90
68354;DHT22;55274;43.060;25.618;2022-12-18T06:44:23;7.80;99.90
68354;DHT22;55274;43.060;25.618;2022-12-18T06:46:49;7.80;99.90
68354;DHT22;55274;43.060;25.618;2022-12-18T06:49:15;7.80;99.90
68354;DHT22;55274;43.060;25.618;2022-12-18T06:51:41;7.80;99.90
68354;DHT22;55274;43.060;25.618;2022-12-18T06:54:08;7.80;99.90
68354;DHT22;55274;43.060;25.618;2022-12-18T06:56:34;7.80;99.90
68354;DHT22;55274;43.060;25.618;2022-12-18T06:59:00;7.90;99.90
68354;DHT22;55274;43.060;25.618;2022-12-18T07:01:26;7.90;99.90
68354;DHT22;55274;43.060;25.618;2022-12-18T07:03:53;7.80;99.90
68354;DHT22;55274;43.060;25.618;2022-12-18T07:06:22;7.90;99.90
68354;DHT22;55274;43.060;25.618;2022-12-18T07:08:48;7.90;99.90
68354;DHT22;55274;43.060;25.618;2022-12-18T07:11:15;7.90;99.90
68354;DHT22;55274;43.060;25.618;2022-12-18T07:13:41;7.90;99.90
68354;DHT22;55274;43.060;25.618;2022-12-18T07:16:15;7.90;99.90
68354;DHT22;55274;43.060;25.618;2022-12-18T07:18:41;7.90;99.90
68354;DHT22;55274;43.060;25.618;2022-12-18T07:21:10;7.90;99.90
68354;DHT22;55274;43.060;25.618;2022-12-18T07:23:36;7.90;99.90
68354;DHT22;55274;43.060;25.618;2022-12-18T07:26:06;7.90;99.90
68354;DHT22;55274;43.060;25.618;2022-12-18T07:28:33;7.90;99.90
68354;DHT22;55274;43.060;25.618;2022-12-18T07:31:14;7.90;99.90
68354;DHT22;55274;43.060;25.618;2022-12-18T07:33:40;7.90;99.90
68354;DHT22;55274;43.060;25.618;2022-12-18T07:36:07;7.90;99.90
68354;DHT22;55274;43.060;25.618;2022-12-18T07:38:35;8.00;99.90
68354;DHT22;55274;43.060;25.618;2022-12-18T07:41:07;8.00;99.90
68354;DHT22;55274;43.060;25.618;2022-12-18T07:43:34;8.00;99.90
68354;DHT22;55274;43.060;25.618;2022-12-18T07:46:00;8.10;99.90
68354;DHT22;55274;43.060;25.618;2022-12-18T07:48:26;8.00;99.90
68354;DHT22;55274;43.060;25.618;2022-12-18T07:50:52;8.10;99.90
68354;DHT22;55274;43.060;25.618;2022-12-18T07:53:18;8.10;99.90
68354;DHT22;55274;43.060;25.618;2022-12-18T07:55:44;8.20;99.90
68354;DHT22;55274;43.060;25.618;2022-12-18T07:58:10;8.20;99.90
68354;DHT22;55274;43.060;25.618;2022-12-18T08:00:35;8.20;99.90
68354;DHT22;55274;43.060;25.618;2022-12-18T08:03:02;8.20;99.90
68354;DHT22;55274;43.060;25.618;2022-12-18T08:05:27;8.30;99.90
68354;DHT22;55274;43.060;25.618;2022-12-18T08:07:53;8.30;99.90
68354;DHT22;55274;43.060;25.618;2022-12-18T08:10:20;8.30;99.90
68354;DHT22;55274;43.060;25.618;2022-12-18T08:12:49;8.40;99.90
68354;DHT22;55274;43.060;25.618;2022-12-18T08:15:15;8.40;99.90
68354;DHT22;55274;43.060;25.618;2022-12-18T08:17:41;8.40;99.90
68354;DHT22;55274;43.060;25.618;2022-12-18T08:20:07;8.50;99.90
68354;DHT22;55274;43.060;25.618;2022-12-18T08:22:37;8.50;99.90
68354;DHT22;55274;43.060;25.618;2022-12-18T08:25:04;8.50;99.90
68354;DHT22;55274;43.060;25.618;2022-12-18T08:27:30;8.50;99.90
68354;DHT22;55274;43.060;25.618;2022-12-18T08:29:57;8.60;99.90
68354;DHT22;55274;43.060;25.618;2022-12-18T08:32:24;8.60;99.90
68354;DHT22;55274;43.060;25.618;2022-12-18T08:34:50;8.60;99.90
68354;DHT22;55274;43.060;25.618;2022-12-18T08:37:15;8.70;99.90
68354;DHT22;55274;43.060;25.618;2022-12-18T08:39:41;8.70;99.90
68354;DHT22;55274;43.060;25.618;2022-12-18T08:42:07;8.60;99.90
68354;DHT22;55274;43.060;25.618;2022-12-18T08:44:51;8.70;99.90
68354;DHT22;55274;43.060;25.618;2022-12-18T08:47:17;8.70;99.90
68354;DHT22;55274;43.060;25.618;2022-12-18T08:49:43;8.70;99.90
68354;DHT22;55274;43.060;25.618;2022-12-18T08:52:08;8.70;99.90
68354;DHT22;55274;43.060;25.618;2022-12-18T08:54:34;8.70;98.80
68354;DHT22;55274;43.060;25.618;2022-12-18T08:57:00;8.70;97.30
68354;DHT22;55274;43.060;25.618;2022-12-18T08:59:29;8.70;97.90
68354;DHT22;55274;43.060;25.618;2022-12-18T09:01:55;8.60;96.30
68354;DHT22;55274;43.060;25.618;2022-12-18T09:04:21;8.60;96.30
68354;DHT22;55274;43.060;25.618;2022-12-18T09:06:47;8.70;96.50
68354;DHT22;55274;43.060;25.618;2022-12-18T09:09:13;8.70;95.90
68354;DHT22;55274;43.060;25.618;2022-12-18T09:11:39;8.70;97.00
68354;DHT22;55274;43.060;25.618;2022-12-18T09:14:05;8.70;96.80
68354;DHT22;55274;43.060;25.618;2022-12-18T09:16:31;8.70;94.60
68354;DHT22;55274;43.060;25.618;2022-12-18T09:18:58;8.70;94.30
68354;DHT22;55274;43.060;25.618;2022-12-18T09:21:32;8.80;95.60
68354;DHT22;55274;43.060;25.618;2022-12-18T09:23:58;8.80;93.50
68354;DHT22;55274;43.060;25.618;2022-12-18T09:26:25;8.80;93.40
68354;DHT22;55274;43.060;25.618;2022-12-18T09:28:52;8.70;91.90
68354;DHT22;55274;43.060;25.618;2022-12-18T09:31:20;8.70;93.20
68354;DHT22;55274;43.060;25.618;2022-12-18T09:33:46;8.80;94.20
68354;DHT22;55274;43.060;25.618;2022-12-18T09:36:14;8.80;92.80
68354;DHT22;55274;43.060;25.618;2022-12-18T09:38:40;8.80;91.90
68354;DHT22;55274;43.060;25.618;2022-12-18T09:43:52;8.80;88.70
68354;DHT22;55274;43.060;25.618;2022-12-18T09:46:25;8.80;88.80
68354;DHT22;55274;43.060;25.618;2022-12-18T09:48:55;8.80;89.40
68354;DHT22;55274;43.060;25.618;2022-12-18T09:51:30;8.80;87.60
68354;DHT22;55274;43.060;25.618;2022-12-18T09:54:02;8.80;87.20
68354;DHT22;55274;43.060;25.618;2022-12-18T09:56:31;8.80;85.80
68354;DHT22;55274;43.060;25.618;2022-12-18T09:59:01;8.80;85.40
68354;DHT22;55274;43.060;25.618;2022-12-18T10:01:28;8.90;86.50
68354;DHT22;55274;43.060;25.618;2022-12-18T10:03:55;8.90;86.30
68354;DHT22;55274;43.060;25.618;2022-12-18T10:06:26;9.00;86.50
68354;DHT22;55274;43.060;25.618;2022-12-18T10:09:30;9.00;84.90
68354;DHT22;55274;43.060;25.618;2022-12-18T10:12:32;9.10;84.90
68354;DHT22;55274;43.060;25.618;2022-12-18T10:15:17;9.20;84.50
68354;DHT22;55274;43.060;25.618;2022-12-18T10:20:43;9.40;82.80
68354;DHT22;55274;43.060;25.618;2022-12-18T10:26:07;9.50;84.40
68354;DHT22;55274;43.060;25.618;2022-12-18T10:28:36;9.60;84.00
68354;DHT22;55274;43.060;25.618;2022-12-18T10:31:02;9.70;85.20
68354;DHT22;55274;43.060;25.618;2022-12-18T10:33:31;9.60;81.50
68354;DHT22;55274;43.060;25.618;2022-12-18T10:35:58;9.70;81.80
68354;DHT22;55274;43.060;25.618;2022-12-18T10:38:31;9.70;82.80
68354;DHT22;55274;43.060;25.618;2022-12-18T10:40:58;9.70;81.00
68354;DHT22;55274;43.060;25.618;2022-12-18T10:43:27;9.70;81.80
68354;DHT22;55274;43.060;25.618;2022-12-18T10:48:33;9.70;80.80
68354;DHT22;55274;43.060;25.618;2022-12-18T10:51:00;9.80;81.60
68354;DHT22;55274;43.060;25.618;2022-12-18T10:53:28;9.70;80.80
68354;DHT22;55274;43.060;25.618;2022-12-18T10:55:56;9.80;83.30
68354;DHT22;55274;43.060;25.618;2022-12-18T10:58:26;9.80;80.80
68354;DHT22;55274;43.060;25.618;2022-12-18T11:01:03;9.80;79.90
68354;DHT22;55274;43.060;25.618;2022-12-18T11:06:19;9.90;81.90
68354;DHT22;55274;43.060;25.618;2022-12-18T11:11:28;9.90;82.50
68354;DHT22;55274;43.060;25.618;2022-12-18T11:14:05;9.90;80.90
68354;DHT22;55274;43.060;25.618;2022-12-18T11:16:36;10.00;81.10
68354;DHT22;55274;43.060;25.618;2022-12-18T11:21:55;10.20;80.20
68354;DHT22;55274;43.060;25.618;2022-12-18T11:26:55;10.30;80.50
68354;DHT22;55274;43.060;25.618;2022-12-18T11:29:31;10.40;80.40
68354;DHT22;55274;43.060;25.618;2022-12-18T11:37:50;10.50;77.90
68354;DHT22;55274;43.060;25.618;2022-12-18T11:40:23;10.40;77.60
68354;DHT22;55274;43.060;25.618;2022-12-18T11:43:16;10.30;75.80
68354;DHT22;55274;43.060;25.618;2022-12-18T11:46:17;10.20;77.80
68354;DHT22;55274;43.060;25.618;2022-12-18T11:51:22;10.10;76.60
68354;DHT22;55274;43.060;25.618;2022-12-18T11:53:51;10.00;76.50
68354;DHT22;55274;43.060;25.618;2022-12-18T11:56:35;10.00;77.70
68354;DHT22;55274;43.060;25.618;2022-12-18T12:07:10;10.00;75.20
68354;DHT22;55274;43.060;25.618;2022-12-18T12:24:23;9.40;77.60
68354;DHT22;55274;43.060;25.618;2022-12-18T12:32:25;9.10;78.20
68354;DHT22;55274;43.060;25.618;2022-12-18T12:35:09;9.00;77.20
68354;DHT22;55274;43.060;25.618;2022-12-18T12:40:23;8.90;78.20
68354;DHT22;55274;43.060;25.618;2022-12-18T12:42:55;8.90;79.10
68354;DHT22;55274;43.060;25.618;2022-12-18T12:45:45;8.80;78.90
68354;DHT22;55274;43.060;25.618;2022-12-18T12:51:26;8.80;79.30
68354;DHT22;55274;43.060;25.618;2022-12-18T12:53:54;8.70;79.30
68354;DHT22;55274;43.060;25.618;2022-12-18T12:56:32;8.80;80.20
68354;DHT22;55274;43.060;25.618;2022-12-18T12:59:15;8.80;80.00
68354;DHT22;55274;43.060;25.618;2022-12-18T13:04:36;8.70;77.80
68354;DHT22;55274;43.060;25.618;2022-12-18T13:12:56;8.60;79.20
68354;DHT22;55274;43.060;25.618;2022-12-18T13:20:36;8.50;77.40
68354;DHT22;55274;43.060;25.618;2022-12-18T13:25:51;8.40;79.00
68354;DHT22;55274;43.060;25.618;2022-12-18T13:28:49;8.40;78.10
68354;DHT22;55274;43.060;25.618;2022-12-18T13:31:10;8.30;79.60
68354;DHT22;55274;43.060;25.618;2022-12-18T13:38:44;8.30;79.10
68354;DHT22;55274;43.060;25.618;2022-12-18T13:43:43;8.20;79.50
68354;DHT22;55274;43.060;25.618;2022-12-18T13:49:06;8.10;81.60
68354;DHT22;55274;43.060;25.618;2022-12-18T13:51:47;8.20;82.70
68354;DHT22;55274;43.060;25.618;2022-12-18T13:54:42;8.20;82.20
68354;DHT22;55274;43.060;25.618;2022-12-18T13:59:56;8.00;82.10
68354;DHT22;55274;43.060;25.618;2022-12-18T14:02:24;8.00;81.20
68354;DHT22;55274;43.060;25.618;2022-12-18T14:04:51;7.80;81.50
68354;DHT22;55274;43.060;25.618;2022-12-18T14:07:25;7.80;82.90
68354;DHT22;55274;43.060;25.618;2022-12-18T14:10:01;7.80;83.70
68354;DHT22;55274;43.060;25.618;2022-12-18T14:12:31;7.80;83.80
68354;DHT22;55274;43.060;25.618;2022-12-18T14:15:34;7.80;83.10
68354;DHT22;55274;43.060;25.618;2022-12-18T14:20:53;7.80;84.20
68354;DHT22;55274;43.060;25.618;2022-12-18T14:23:34;7.70;84.00
68354;DHT22;55274;43.060;25.618;2022-12-18T14:26:02;7.70;84.20
68354;DHT22;55274;43.060;25.618;2022-12-18T14:28:29;7.70;84.30
68354;DHT22;55274;43.060;25.618;2022-12-18T14:30:55;7.60;85.10
68354;DHT22;55274;43.060;25.618;2022-12-18T14:33:26;7.60;84.70
68354;DHT22;55274;43.060;25.618;2022-12-18T14:36:00;7.60;84.50
68354;DHT22;55274;43.060;25.618;2022-12-18T14:41:12;7.70;85.30
68354;DHT22;55274;43.060;25.618;2022-12-18T14:43:40;7.60;85.10
68354;DHT22;55274;43.060;25.618;2022-12-18T14:49:02;7.60;85.80
68354;DHT22;55274;43.060;25.618;2022-12-18T14:51:31;7.60;85.60
68354;DHT22;55274;43.060;25.618;2022-12-18T14:54:15;7.60;85.20
68354;DHT22;55274;43.060;25.618;2022-12-18T14:56:51;7.60;84.90
68354;DHT22;55274;43.060;25.618;2022-12-18T14:59:21;7.50;84.90
68354;DHT22;55274;43.060;25.618;2022-12-18T15:04:28;7.50;85.50
68354;DHT22;55274;43.060;25.618;2022-12-18T15:07:12;7.50;85.90
68354;DHT22;55274;43.060;25.618;2022-12-18T15:09:40;7.50;86.30
68354;DHT22;55274;43.060;25.618;2022-12-18T15:12:37;7.50;85.60
68354;DHT22;55274;43.060;25.618;2022-12-18T15:15:05;7.40;86.10
68354;DHT22;55274;43.060;25.618;2022-12-18T15:17:31;7.50;87.20
68354;DHT22;55274;43.060;25.618;2022-12-18T15:20:03;7.40;86.30
68354;DHT22;55274;43.060;25.618;2022-12-18T15:22:35;7.40;86.70
68354;DHT22;55274;43.060;25.618;2022-12-18T15:25:02;7.40;86.50
68354;DHT22;55274;43.060;25.618;2022-12-18T15:27:33;7.40;87.20
68354;DHT22;55274;43.060;25.618;2022-12-18T15:32:36;7.40;86.50
68354;DHT22;55274;43.060;25.618;2022-12-18T15:35:23;7.40;87.10
68354;DHT22;55274;43.060;25.618;2022-12-18T15:37:51;7.30;87.10
68354;DHT22;55274;43.060;25.618;2022-12-18T15:40:23;7.30;87.10
68354;DHT22;55274;43.060;25.618;2022-12-18T15:42:52;7.20;88.00
68354;DHT22;55274;43.060;25.618;2022-12-18T15:45:37;7.20;88.10
68354;DHT22;55274;43.060;25.618;2022-12-18T15:48:15;7.10;88.40
68354;DHT22;55274;43.060;25.618;2022-12-18T15:50:43;7.10;88.70
68354;DHT22;55274;43.060;25.618;2022-12-18T15:53:09;7.10;89.30
68354;DHT22;55274;43.060;25.618;2022-12-18T15:55:35;7.10;89.60
68354;DHT22;55274;43.060;25.618;2022-12-18T15:58:19;7.00;89.70
68354;DHT22;55274;43.060;25.618;2022-12-18T16:00:46;7.00;89.80
68354;DHT22;55274;43.060;25.618;2022-12-18T16:03:11;7.00;90.40
68354;DHT22;55274;43.060;25.618;2022-12-18T16:05:37;6.80;91.10
68354;DHT22;55274;43.060;25.618;2022-12-18T16:08:03;6.80;91.60
68354;DHT22;55274;43.060;25.618;2022-12-18T16:10:29;6.70;92.00
68354;DHT22;55274;43.060;25.618;2022-12-18T16:12:55;6.70;91.80
68354;DHT22;55274;43.060;25.618;2022-12-18T16:15:21;6.60;92.20
68354;DHT22;55274;43.060;25.618;2022-12-18T16:17:47;6.60;92.30
68354;DHT22;55274;43.060;25.618;2022-12-18T16:20:17;6.70;92.90
68354;DHT22;55274;43.060;25.618;2022-12-18T16:22:44;6.60;92.30
68354;DHT22;55274;43.060;25.618;2022-12-18T16:25:23;6.60;92.50
68354;DHT22;55274;43.060;25.618;2022-12-18T16:27:50;6.60;92.90
68354;DHT22;55274;43.060;25.618;2022-12-18T16:30:19;6.70;93.00
68354;DHT22;55274;43.060;25.618;2022-12-18T16:32:45;6.70;93.50
68354;DHT22;55274;43.060;25.618;2022-12-18T16:35:12;6.70;93.60
68354;DHT22;55274;43.060;25.618;2022-12-18T16:37:39;6.70;92.30
68354;DHT22;55274;43.060;25.618;2022-12-18T16:40:07;6.70;92.20
68354;DHT22;55274;43.060;25.618;2022-12-18T16:42:35;6.60;92.50
68354;DHT22;55274;43.060;25.618;2022-12-18T16:45:01;6.60;91.80
68354;DHT22;55274;43.060;25.618;2022-12-18T16:47:27;6.70;92.40
68354;DHT22;55274;43.060;25.618;2022-12-18T16:49:53;6.60;92.50
68354;DHT22;55274;43.060;25.618;2022-12-18T16:52:19;6.70;92.10
68354;DHT22;55274;43.060;25.618;2022-12-18T16:54:45;6.60;92.30
68354;DHT22;55274;43.060;25.618;2022-12-18T16:57:16;6.60;92.30
68354;DHT22;55274;43.060;25.618;2022-12-18T16:59:42;6.60;92.70
68354;DHT22;55274;43.060;25.618;2022-12-18T17:02:20;6.60;92.50
68354;DHT22;55274;43.060;25.618;2022-12-18T17:04:46;6.50;92.30
68354;DHT22;55274;43.060;25.618;2022-12-18T17:07:13;6.50;92.70
68354;DHT22;55274;43.060;25.618;2022-12-18T17:09:39;6.50;92.80
68354;DHT22;55274;43.060;25.618;2022-12-18T17:12:06;6.50;93.30
68354;DHT22;55274;43.060;25.618;2022-12-18T17:14:32;6.50;93.00
68354;DHT22;55274;43.060;25.618;2022-12-18T17:16:58;6.50;92.50
68354;DHT22;55274;43.060;25.618;2022-12-18T17:19:27;6.40;92.60
68354;DHT22;55274;43.060;25.618;2022-12-18T17:21:53;6.40;93.20
68354;DHT22;55274;43.060;25.618;2022-12-18T17:24:19;6.40;93.30
68354;DHT22;55274;43.060;25.618;2022-12-18T17:26:46;6.40;93.30
68354;DHT22;55274;43.060;25.618;2022-12-18T17:29:14;6.40;93.40
68354;DHT22;55274;43.060;25.618;2022-12-18T17:31:40;6.40;93.50
68354;DHT22;55274;43.060;25.618;2022-12-18T17:34:08;6.50;93.40
68354;DHT22;55274;43.060;25.618;2022-12-18T17:36:35;6.50;93.30
68354;DHT22;55274;43.060;25.618;2022-12-18T17:39:02;6.40;92.10
68354;DHT22;55274;43.060;25.618;2022-12-18T17:41:29;6.40;92.50
68354;DHT22;55274;43.060;25.618;2022-12-18T17:44:05;6.40;92.70
68354;DHT22;55274;43.060;25.618;2022-12-18T17:46:32;6.40;91.70
68354;DHT22;55274;43.060;25.618;2022-12-18T17:49:00;6.30;91.90
68354;DHT22;55274;43.060;25.618;2022-12-18T17:51:27;6.40;92.20
68354;DHT22;55274;43.060;25.618;2022-12-18T17:53:53;6.40;91.60
68354;DHT22;55274;43.060;25.618;2022-12-18T17:56:21;6.40;91.80
68354;DHT22;55274;43.060;25.618;2022-12-18T17:58:47;6.40;92.20
68354;DHT22;55274;43.060;25.618;2022-12-18T18:01:24;6.30;92.10
68354;DHT22;55274;43.060;25.618;2022-12-18T18:03:50;6.40;91.50
68354;DHT22;55274;43.060;25.618;2022-12-18T18:06:16;6.30;91.80